Time;durP1;ratioP1;P1;durP2;ratioP2;P2;SDS_P1;SDS_P2;PMS_P1;PMS_P2;Temp;Humidity;BMP_temperature;BMP_pressure;BME280_temperature;BME280_humidity;BME280_pressure;Samples;Min_cycle;Max_cycle;Signal;HPM_P1;HPM_P2
2022/05/29 00:02:20;;;;;;;5.70;2.60;;;6.40;1.00;;;6.80;93.63;98425.19;5062122;27;130282;-77
2022/05/29 00:04:48;;;;;;;4.07;2.42;;;6.30;1.00;;;6.75;93.81;98425.34;5062214;27;129909;-76
2022/05/29 00:07:20;;;;;;;4.07;2.58;;;6.20;1.00;;;6.67;93.91;98423.41;5064325;27;117637;-76
2022/05/29 00:09:52;;;;;;;4.80;2.60;;;6.10;1.00;;;6.61;95.33;98424.66;5064368;27;114651;-77
2022/05/29 00:12:23;;;;;;;4.70;2.53;;;6.10;1.00;;;6.54;95.92;98432.38;5062060;27;129798;-74
2022/05/29 00:14:53;;;;;;;4.00;2.25;;;6.10;1.00;;;6.46;96.93;98432.03;5061569;27;129384;-74
2022/05/29 00:17:21;;;;;;;5.13;2.70;;;6.10;1.00;;;6.45;97.26;98433.16;5063719;27;118442;-76
2022/05/29 00:19:50;;;;;;;5.55;2.78;;;6.00;1.00;;;6.40;98.12;98433.25;5060859;27;115771;-75
2022/05/29 00:22:22;;;;;;;4.75;2.25;;;6.00;1.00;;;6.39;97.99;98434.38;5046622;27;128695;-78
2022/05/29 00:24:51;;;;;;;5.30;2.50;;;6.20;1.00;;;6.41;98.19;98439.47;5063862;27;128601;-80
2022/05/29 00:27:20;;;;;;;4.65;2.67;;;6.20;1.00;;;6.42;97.88;98439.16;5060465;27;119297;-75
2022/05/29 00:29:49;;;;;;;4.47;2.78;;;6.10;1.00;;;6.39;98.11;98442.47;5047039;27;114969;-76
2022/05/29 00:32:18;;;;;;;6.10;2.60;;;6.10;1.00;;;6.34;97.83;98445.28;5060446;27;130298;-75
2022/05/29 00:34:47;;;;;;;5.78;3.13;;;6.10;1.00;;;6.33;98.33;98443.72;5061643;27;129770;-74
2022/05/29 00:37:15;;;;;;;5.55;3.35;;;6.10;1.00;;;6.31;98.08;98440.53;5062488;27;119380;-78
2022/05/29 00:39:45;;;;;;;5.75;3.15;;;6.00;1.00;;;6.27;98.76;98444.94;5061343;27;115176;-75
2022/05/29 00:42:16;;;;;;;5.47;3.35;;;6.00;1.00;;;6.24;99.61;98440.94;5062085;27;130114;-74
2022/05/29 00:44:44;;;;;;;5.75;3.55;;;6.10;1.00;;;6.23;99.98;98443.94;5061568;27;130028;-72
2022/05/29 00:47:16;;;;;;;5.68;3.30;;;6.10;1.00;;;6.26;100.00;98444.16;5063496;27;118754;-73
2022/05/29 00:49:49;;;;;;;5.95;3.38;;;6.10;1.00;;;6.29;100.00;98448.09;5063694;27;114546;-73
2022/05/29 00:52:21;;;;;;;6.47;3.58;;;6.20;1.00;;;6.26;100.00;98444.16;5061057;27;129942;-73
2022/05/29 00:54:55;;;;;;;7.07;3.78;;;6.20;1.00;;;6.29;100.00;98448.09;5042117;27;129035;-77
2022/05/29 00:57:29;;;;;;;7.25;3.50;;;6.30;1.00;;;6.28;100.00;98451.94;5040621;27;118735;-75
2022/05/29 01:00:03;;;;;;;5.90;3.38;;;6.20;1.00;;;6.27;100.00;98450.31;5041162;27;114901;-75
2022/05/29 01:02:32;;;;;;;7.57;3.40;;;6.20;1.00;;;6.25;100.00;98452.53;5040473;27;130990;-77
2022/05/29 01:05:04;;;;;;;6.40;3.45;;;6.10;1.00;;;6.21;100.00;98452.34;5040474;27;129866;-75
2022/05/29 01:07:33;;;;;;;6.55;3.58;;;6.00;1.00;;;6.19;100.00;98448.38;5042558;27;118775;-75
2022/05/29 01:10:03;;;;;;;6.35;3.35;;;5.90;1.00;;;6.14;100.00;98453.88;5026056;27;114591;-75
2022/05/29 01:12:47;;;;;;;7.18;2.95;;;5.90;1.00;;;6.06;100.00;98461.63;5040335;27;130376;-75
2022/05/29 01:15:31;;;;;;;8.00;3.80;;;5.80;1.00;;;6.02;100.00;98457.16;5040307;27;129426;-74
2022/05/29 01:18:15;;;;;;;5.95;3.42;;;5.70;1.00;;;5.94;100.00;98450.56;5039408;27;119425;-75
2022/05/29 01:21:11;;;;;;;7.78;4.05;;;5.60;1.00;;;5.88;100.00;98459.88;5040893;27;115404;-74
2022/05/29 01:24:20;;;;;;;6.70;3.03;;;5.60;1.00;;;5.84;100.00;98462.34;5040344;27;130177;-75
2022/05/29 01:27:15;;;;;;;5.95;3.65;;;5.50;1.00;;;5.82;100.00;98461.09;4969408;27;128423;-73
2022/05/29 01:29:59;;;;;;;8.18;4.28;;;5.50;1.00;;;5.75;100.00;98456.91;5040308;27;118959;-77
2022/05/29 01:32:36;;;;;;;6.18;3.65;;;5.50;1.00;;;5.74;100.00;98458.00;5040777;27;115272;-74
2022/05/29 01:35:12;;;;;;;6.78;3.75;;;5.50;1.00;;;5.70;100.00;98462.44;5058902;27;129182;-74
2022/05/29 01:37:51;;;;;;;6.00;3.88;;;5.40;23.10;;;5.66;100.00;98466.81;5040325;27;130054;-74
2022/05/29 01:40:33;;;;;;;7.25;3.75;;;5.50;50.50;;;5.63;100.00;98475.50;5040861;27;118549;-74
2022/05/29 01:43:12;;;;;;;7.50;3.65;;;5.50;90.50;;;5.65;100.00;98478.69;5060535;27;115481;-75
2022/05/29 01:45:54;;;;;;;5.55;3.47;;;5.50;99.90;;;5.62;100.00;98484.66;5046719;27;130075;-77
2022/05/29 01:48:37;;;;;;;6.55;3.58;;;5.50;99.90;;;5.60;100.00;98481.50;5048893;27;129895;-74
2022/05/29 01:51:13;;;;;;;6.53;4.00;;;5.50;99.90;;;5.59;100.00;98490.66;5047379;27;118816;-77
2022/05/29 01:53:48;;;;;;;6.00;3.97;;;5.50;99.90;;;5.61;100.00;98487.66;5047534;27;115332;-77
2022/05/29 01:56:22;;;;;;;6.97;4.00;;;5.50;99.90;;;5.63;100.00;98485.47;5045388;27;130315;-76
2022/05/29 01:58:58;;;;;;;6.82;3.95;;;5.50;99.90;;;5.64;100.00;98484.38;5045801;27;130458;-79
2022/05/29 02:01:35;;;;;;;6.17;4.00;;;5.50;99.90;;;5.63;100.00;98486.28;5044001;27;118872;-76
2022/05/29 02:04:09;;;;;;;6.07;4.00;;;5.60;99.90;;;5.64;100.00;98487.06;5040482;27;115837;-77
2022/05/29 02:09:38;;;;;;;6.20;3.58;;;5.60;99.90;;;5.66;100.00;98491.03;5007254;27;128973;-76
2022/05/29 02:12:16;;;;;;;6.95;4.63;;;5.70;99.90;;;5.71;100.00;98490.91;5040215;27;119592;-75
2022/05/29 02:14:52;;;;;;;7.10;4.07;;;5.70;99.90;;;5.72;100.00;98495.22;5041984;27;114680;-73
2022/05/29 02:17:27;;;;;;;8.93;4.70;;;5.70;99.90;;;5.78;100.00;98492.41;5039746;27;129881;-77
2022/05/29 02:20:04;;;;;;;8.55;4.32;;;5.70;99.90;;;5.81;100.00;98484.50;5041896;27;128659;-77
2022/05/29 02:22:36;;;;;;;7.75;4.63;;;5.70;99.90;;;5.85;100.00;98490.88;5040097;27;120559;-77
2022/05/29 02:25:11;;;;;;;6.57;4.25;;;5.70;99.90;;;5.88;100.00;98492.97;5042160;27;114289;-72
2022/05/29 02:27:50;;;;;;;5.97;4.40;;;5.80;99.90;;;5.94;100.00;98501.75;5039300;27;129886;-76
2022/05/29 02:30:18;;;;;;;8.90;4.43;;;5.90;99.90;;;5.99;100.00;98498.94;5039666;27;129455;-75
2022/05/29 02:33:03;;;;;;;7.00;4.30;;;5.90;99.90;;;6.02;100.00;98503.72;5040047;27;118821;-76
2022/05/29 02:35:40;;;;;;;6.78;4.38;;;5.90;99.90;;;6.09;100.00;98509.50;5039872;27;115253;-74
2022/05/29 02:38:16;;;;;;;8.80;4.65;;;5.90;99.90;;;6.20;100.00;98506.53;5039414;27;130087;-71
2022/05/29 02:40:59;;;;;;;6.35;4.13;;;6.00;99.90;;;6.35;100.00;98506.16;5041268;27;128948;-76
2022/05/29 02:43:40;;;;;;;8.25;3.90;;;6.20;99.90;;;6.47;100.00;98509.09;5058773;27;117732;-77
2022/05/29 02:46:23;;;;;;;6.75;3.83;;;6.20;99.90;;;6.76;100.00;98510.53;5040097;27;115254;-76
2022/05/29 02:49:01;;;;;;;6.38;4.22;;;6.40;99.90;;;7.05;100.00;98517.28;5039354;27;130003;-79
2022/05/29 02:51:40;;;;;;;5.40;4.00;;;6.60;99.90;;;7.33;100.00;98517.06;5037548;27;129685;-78
2022/05/29 02:54:12;;;;;;;6.65;4.20;;;6.70;99.90;;;7.43;100.00;98522.16;5039583;27;119923;-77
2022/05/29 02:56:42;;;;;;;7.03;4.38;;;6.70;99.90;;;7.52;98.91;98514.88;5040837;27;116158;-75
2022/05/29 02:59:10;;;;;;;8.77;4.90;;;6.70;61.60;;;7.49;98.69;98512.81;5044846;27;129765;-77
2022/05/29 03:01:46;;;;;;;9.02;4.97;;;6.80;35.70;;;7.53;98.58;98516.47;5041146;27;130187;-75
2022/05/29 03:04:32;;;;;;;8.00;5.27;;;6.80;37.40;;;7.49;98.65;98509.31;5042662;27;119135;-74
2022/05/29 03:07:10;;;;;;;6.65;4.90;;;6.80;34.70;;;7.52;98.03;98519.50;5041750;27;115580;-74
2022/05/29 03:09:54;;;;;;;8.18;5.10;;;6.80;1.00;;;7.39;97.84;98532.00;5042849;27;130037;-75
2022/05/29 03:12:40;;;;;;;7.43;5.45;;;6.70;1.00;;;7.40;98.22;98522.78;5043041;27;129910;-78
2022/05/29 03:15:22;;;;;;;11.00;5.55;;;6.70;1.00;;;7.51;98.29;98534.91;5043260;27;118943;-78
2022/05/29 03:18:07;;;;;;;8.00;5.55;;;6.90;1.00;;;7.61;97.86;98527.63;5043174;27;115557;-77
2022/05/29 03:20:48;;;;;;;9.93;5.82;;;6.90;1.00;;;7.62;97.90;98537.28;5044230;27;129934;-77
2022/05/29 03:23:30;;;;;;;8.38;5.80;;;7.00;1.00;;;7.58;98.06;98549.84;5042482;27;129652;-76
2022/05/29 03:26:03;;;;;;;10.05;5.95;;;6.90;1.00;;;7.54;98.37;98547.78;5046474;27;118892;-75
2022/05/29 03:28:40;;;;;;;10.23;6.22;;;6.90;1.00;;;7.54;98.45;98542.38;5048372;27;112751;-76
2022/05/29 03:31:17;;;;;;;7.68;5.80;;;6.90;1.00;;;7.56;98.98;98547.47;5046765;27;129139;-75
2022/05/29 03:33:47;;;;;;;7.22;5.40;;;6.90;1.00;;;7.65;99.28;98550.16;5045076;27;129954;-78
2022/05/29 03:36:18;;;;;;;8.07;5.60;;;7.10;1.00;;;7.79;98.55;98556.25;5045253;27;118803;-76
2022/05/29 03:38:47;;;;;;;14.18;8.20;;;7.20;1.00;;;7.96;98.30;98554.66;5046665;27;115203;-76
2022/05/29 03:41:26;;;;;;;8.85;5.95;;;7.30;1.00;;;7.90;97.45;98554.81;5042483;27;130153;-77
2022/05/29 03:43:55;;;;;;;8.07;5.82;;;7.20;1.00;;;7.78;97.01;98551.94;5044992;27;129060;-78
2022/05/29 03:46:24;;;;;;;9.82;6.25;;;7.00;1.00;;;7.70;96.59;98552.72;5043022;27;119103;-75
2022/05/29 03:48:53;;;;;;;9.60;6.10;;;6.80;1.00;;;7.76;97.50;98550.66;5042790;27;116644;-76
2022/05/29 03:51:22;;;;;;;8.73;5.60;;;7.00;1.00;;;7.89;97.87;98558.63;5040896;27;130069;-78
2022/05/29 03:53:51;;;;;;;10.05;5.93;;;7.30;1.00;;;7.98;96.41;98553.22;5042495;27;129419;-77
2022/05/29 03:56:19;;;;;;;8.40;5.78;;;7.10;1.00;;;7.92;96.15;98555.28;5028286;27;118053;-75
2022/05/29 03:58:48;;;;;;;10.63;6.38;;;7.10;1.00;;;7.99;96.14;98559.44;5044620;27;114634;-77
2022/05/29 04:01:17;;;;;;;9.52;5.57;;;7.10;1.00;;;7.94;96.21;98556.88;5041201;27;129486;-74
2022/05/29 04:03:46;;;;;;;8.38;5.85;;;7.00;1.00;;;7.97;96.52;98567.06;5044046;27;129601;-78
2022/05/29 04:06:14;;;;;;;8.68;5.78;;;7.10;1.00;;;7.91;96.39;98574.50;5042076;27;119544;-75
2022/05/29 04:14:16;;;;;;;8.20;5.43;;;7.10;1.00;;;8.01;95.48;98563.41;5041547;27;129568;-76
2022/05/29 04:16:44;;;;;;;7.90;5.25;;;7.10;1.00;;;8.02;94.67;98570.38;5057744;27;119008;-76
2022/05/29 04:19:12;;;;;;;7.55;5.00;;;7.10;1.00;;;8.03;95.25;98571.19;5042076;27;115304;-77
2022/05/29 04:21:41;;;;;;;8.63;5.35;;;7.10;1.00;;;8.01;94.76;98573.41;5043763;27;128667;-78
2022/05/29 04:24:11;;;;;;;8.52;5.78;;;7.10;1.00;;;8.10;94.92;98587.72;5041870;27;130007;-77
2022/05/29 04:26:39;;;;;;;8.80;5.68;;;7.10;1.00;;;8.13;95.00;98587.09;5043742;27;117975;-76
2022/05/29 04:29:08;;;;;;;8.55;5.55;;;7.20;1.00;;;8.17;95.05;98585.34;5044056;27;114436;-75
2022/05/29 04:31:37;;;;;;;9.68;5.57;;;7.20;1.00;;;8.20;94.79;98595.53;5040117;27;130029;-74
2022/05/29 04:34:04;;;;;;;8.43;5.38;;;7.30;1.00;;;8.25;94.37;98589.16;5040937;27;129428;-76
2022/05/29 04:36:33;;;;;;;6.43;4.60;;;7.20;1.00;;;8.35;93.85;98593.44;5041524;27;119501;-77
2022/05/29 04:39:01;;;;;;;7.47;5.20;;;7.20;1.00;;;8.37;93.91;98593.94;5043971;27;116512;-77
2022/05/29 04:41:31;;;;;;;6.53;4.40;;;7.20;1.00;;;8.23;92.60;98608.41;5041028;27;129734;-76
2022/05/29 04:44:00;;;;;;;7.55;5.25;;;7.00;1.00;;;8.12;93.34;98607.13;5042998;27;128650;-74
2022/05/29 04:46:28;;;;;;;7.80;5.30;;;7.10;1.00;;;7.95;94.64;98617.91;5041642;27;119536;-77
2022/05/29 04:48:57;;;;;;;7.78;5.50;;;7.00;1.00;;;7.87;95.36;98612.19;5041458;27;115179;-73
2022/05/29 04:51:25;;;;;;;7.57;4.97;;;7.10;1.00;;;7.81;95.32;98621.53;5025864;27;129556;-77
2022/05/29 04:53:54;;;;;;;7.10;5.05;;;6.90;1.00;;;7.79;96.04;98631.88;5041473;27;130088;-77
2022/05/29 04:56:22;;;;;;;8.02;5.75;;;7.00;1.00;;;7.80;96.55;98627.25;5041631;27;118763;-79
2022/05/29 04:58:52;;;;;;;9.85;6.75;;;7.00;1.00;;;7.96;95.58;98619.50;5042177;27;115747;-77
2022/05/29 05:01:22;;;;;;;6.75;4.72;;;7.20;1.00;;;8.19;94.13;98618.25;5041072;27;130076;-78
2022/05/29 05:03:50;;;;;;;8.00;5.35;;;7.20;1.00;;;8.43;93.21;98617.81;5040830;27;129412;-75
2022/05/29 05:06:18;;;;;;;6.95;5.15;;;7.20;1.00;;;8.62;92.11;98619.41;5041090;27;119563;-74
2022/05/29 05:08:47;;;;;;;11.50;8.55;;;7.30;1.00;;;8.84;91.41;98615.72;5041197;27;115221;-75
2022/05/29 05:11:15;;;;;;;10.57;6.05;;;7.60;1.00;;;9.00;90.16;98619.47;5059751;27;129415;-73
2022/05/29 05:13:44;;;;;;;5.97;4.60;;;7.70;1.00;;;9.41;89.01;98622.72;5040909;27;129777;-79
2022/05/29 05:16:14;;;;;;;6.70;4.80;;;8.10;1.00;;;9.78;86.56;98619.50;5041220;27;119030;-74
2022/05/29 05:18:43;;;;;;;8.15;4.68;;;8.20;1.00;;;10.16;84.76;98622.16;5025706;27;116292;-77
2022/05/29 05:21:11;;;;;;;7.70;5.00;;;8.30;1.00;;;10.45;83.61;98625.16;5040825;27;129987;-76
2022/05/29 05:23:40;;;;;;;6.90;5.38;;;8.70;1.00;;;10.52;82.68;98628.91;5026865;27;128623;-73
2022/05/29 05:26:11;;;;;;;6.97;4.50;;;8.60;1.00;;;10.43;81.96;98628.97;5043307;27;118354;-76
2022/05/29 05:28:40;;;;;;;9.73;5.07;;;8.40;1.00;;;10.40;81.50;98621.50;5043323;27;114191;-74
2022/05/29 05:31:09;;;;;;;6.15;4.28;;;8.10;1.00;;;10.60;81.16;98628.03;5040573;27;131015;-74
2022/05/29 05:33:40;;;;;;;6.63;4.50;;;8.40;1.00;;;10.75;80.92;98632.06;5040206;27;130197;-72
2022/05/29 05:36:10;;;;;;;7.38;4.45;;;8.60;1.00;;;11.00;80.68;98634.88;5040386;27;119621;-75
2022/05/29 05:38:39;;;;;;;7.25;4.30;;;9.00;1.00;;;11.25;79.53;98640.34;5042351;27;114524;-74
2022/05/29 05:41:10;;;;;;;6.13;4.07;;;9.20;1.00;;;11.67;78.88;98632.00;5040081;27;130080;-76
2022/05/29 05:43:40;;;;;;;6.25;4.25;;;9.70;1.00;;;11.97;76.71;98629.09;5040244;27;129725;-76
2022/05/29 05:46:09;;;;;;;6.68;4.30;;;10.00;1.00;;;12.37;75.25;98629.13;5040709;27;118609;-76
2022/05/29 05:48:39;;;;;;;7.03;3.83;;;10.10;1.00;;;12.61;74.05;98632.09;5039373;27;115085;-77
2022/05/29 05:51:10;;;;;;;5.57;3.45;;;10.40;1.00;;;12.84;71.94;98630.41;5041771;27;128555;-75
2022/05/29 05:53:40;;;;;;;6.00;4.05;;;10.50;1.00;;;12.72;70.46;98622.31;5041766;27;128560;-74
2022/05/29 05:56:11;;;;;;;5.28;3.65;;;10.00;1.00;;;12.69;70.96;98623.00;5040373;27;118718;-74
2022/05/29 05:58:40;;;;;;;5.43;4.07;;;9.70;1.00;;;12.77;71.86;98635.66;5041702;27;115117;-73
2022/05/29 06:01:12;;;;;;;5.18;3.40;;;10.00;1.00;;;13.23;70.67;98636.09;5039920;27;129982;-76
2022/05/29 06:03:43;;;;;;;5.75;4.20;;;10.60;1.00;;;13.29;68.63;98633.91;5041865;27;128899;-77
2022/05/29 06:06:12;;;;;;;5.32;3.90;;;10.00;1.00;;;13.13;68.67;98639.34;5042402;27;118092;-75
2022/05/29 06:08:40;;;;;;;6.05;3.60;;;9.80;1.00;;;13.68;67.70;98634.13;5040441;27;115115;-76
2022/05/29 06:11:09;;;;;;;7.07;3.47;;;10.60;1.00;;;13.87;67.01;98647.03;5041580;27;128686;-76
2022/05/29 06:13:38;;;;;;;6.30;3.75;;;10.90;1.00;;;13.91;66.63;98636.97;5038364;27;129512;-77
2022/05/29 06:16:08;;;;;;;5.88;3.40;;;11.20;1.00;;;13.29;66.92;98645.59;5042130;27;117847;-77
2022/05/29 06:18:37;;;;;;;6.55;4.55;;;10.50;1.00;;;12.58;70.18;98644.47;5041652;27;114949;-73
2022/05/29 06:21:08;;;;;;;6.70;4.10;;;9.90;1.00;;;12.42;71.49;98652.56;5054675;27;130050;-76
2022/05/29 06:23:38;;;;;;;5.38;3.50;;;10.00;1.00;;;12.30;72.62;98649.88;5059402;27;129996;-74
2022/05/29 06:26:10;;;;;;;6.22;4.07;;;10.10;1.00;;;12.36;72.29;98659.38;5059994;27;118840;-74
2022/05/29 06:28:40;;;;;;;5.93;3.70;;;10.10;1.00;;;12.58;72.05;98653.41;5059724;27;114890;-74
2022/05/29 06:31:11;;;;;;;6.15;3.30;;;10.20;1.00;;;13.18;68.91;98658.13;5061190;27;130641;-77
2022/05/29 06:33:40;;;;;;;4.55;3.20;;;10.70;1.00;;;13.74;67.95;98653.72;5064133;27;129221;-74
2022/05/29 06:36:13;;;;;;;4.78;3.22;;;11.30;1.00;;;13.72;66.73;98656.03;5065161;27;118536;-78
2022/05/29 06:38:42;;;;;;;5.95;3.40;;;11.40;1.00;;;13.66;65.56;98659.03;5048971;27;116413;-74
2022/05/29 06:41:14;;;;;;;6.10;2.80;;;11.00;1.00;;;13.44;66.51;98667.78;5044176;27;130139;-75
2022/05/29 06:43:43;;;;;;;5.15;3.38;;;11.00;1.00;;;14.01;64.66;98658.25;5057874;27;129391;-75
2022/05/29 06:46:13;;;;;;;4.97;2.70;;;11.30;1.00;;;14.07;62.06;98660.72;5027387;27;117413;-73
2022/05/29 06:48:42;;;;;;;5.25;3.08;;;10.90;1.00;;;13.91;63.54;98656.06;5042639;27;115580;-74
2022/05/29 06:51:14;;;;;;;4.65;2.72;;;11.20;1.00;;;14.38;63.44;98663.38;5057697;27;131517;-73
2022/05/29 06:53:43;;;;;;;3.90;2.70;;;11.80;1.00;;;14.68;61.30;98668.31;5042389;27;129866;-76
2022/05/29 06:56:12;;;;;;;3.88;2.80;;;12.10;99.90;;;14.95;60.36;98676.63;5027179;27;117932;-75
2022/05/29 06:58:41;;;;;;;5.28;2.55;;;12.20;99.90;;;14.98;61.09;98680.59;5043266;27;113968;-75
2022/05/29 07:07:02;;;;;;;3.83;2.67;;;11.60;99.90;;;13.77;63.26;98685.75;5044570;27;118837;-75
2022/05/29 07:09:33;;;;;;;4.35;2.65;;;11.60;99.90;;;13.90;63.32;98684.50;5042321;27;116057;-75
2022/05/29 07:12:08;;;;;;;7.55;3.60;;;11.60;99.90;;;13.94;62.28;98690.81;5026628;27;128807;-75
2022/05/29 07:14:39;;;;;;;5.13;2.78;;;11.30;99.90;;;13.88;61.73;98696.91;5058402;27;129696;-76
2022/05/29 07:17:08;;;;;;;5.47;3.00;;;11.20;99.90;;;13.81;62.27;98698.31;5043283;27;117904;-78
2022/05/29 07:19:37;;;;;;;5.15;2.90;;;10.70;1.00;;;13.72;64.16;98705.09;5049697;27;115183;-78
2022/05/29 07:22:07;;;;;;;4.10;2.58;;;11.10;1.00;;;13.83;64.77;98706.16;5062961;27;130323;-78
2022/05/29 07:24:37;;;;;;;5.00;2.63;;;11.50;1.00;;;13.59;64.54;98712.56;5060419;27;129194;-77
2022/05/29 07:27:08;;;;;;;4.35;2.80;;;11.30;1.00;;;13.15;65.25;98709.81;5039588;27;118976;-74
2022/05/29 07:29:37;;;;;;;4.60;3.17;;;10.90;1.00;;;12.94;66.47;98710.81;5042088;27;115140;-76
2022/05/29 07:32:08;;;;;;;4.10;2.97;;;10.60;1.00;;;13.18;66.85;98709.13;5042986;27;129935;-76
2022/05/29 07:34:38;;;;;;;4.70;2.75;;;11.00;1.00;;;13.49;65.61;98708.41;5064026;27;130973;-77
2022/05/29 07:37:12;;;;;;;4.05;2.60;;;11.40;1.00;;;13.83;64.01;98706.94;5060266;27;118671;-77
2022/05/29 07:39:45;;;;;;;5.32;2.78;;;11.70;99.90;;;14.26;62.36;98718.06;5047477;27;114359;-76
2022/05/29 07:45:00;;;;;;;6.17;2.40;;;11.90;99.90;;;14.61;59.43;98721.97;5059894;27;129145;-74
2022/05/29 07:47:36;;;;;;;4.88;2.70;;;11.40;99.90;;;14.94;60.98;98713.28;5040429;27;119432;-75
2022/05/29 07:50:07;;;;;;;3.25;2.30;;;12.30;99.90;;;15.18;59.13;98719.63;5043060;27;114230;-78
2022/05/29 07:52:40;;;;;;;3.22;2.10;;;12.60;99.90;;;15.22;58.42;98723.19;5023666;27;130789;-77
2022/05/29 07:55:09;;;;;;;4.78;2.60;;;12.50;99.90;;;15.28;58.71;98727.22;5042719;27;129362;-75
2022/05/29 07:57:38;;;;;;;3.90;2.17;;;12.60;99.90;;;15.21;58.22;98721.66;5071430;27;118266;-77
2022/05/29 08:00:13;;;;;;;4.38;2.35;;;12.30;99.90;;;15.22;57.52;98725.94;5064010;27;115660;-74
2022/05/29 08:02:41;;;;;;;7.25;2.70;;;12.30;99.90;;;15.28;58.97;98724.50;5062774;27;129150;-76
2022/05/29 08:05:14;;;;;;;4.90;2.80;;;12.60;99.90;;;15.55;57.32;98736.34;5045268;27;128907;-76
2022/05/29 08:07:46;;;;;;;3.97;2.30;;;12.80;99.90;;;15.53;57.48;98740.56;5063767;27;118229;-75
2022/05/29 08:10:17;;;;;;;4.30;2.28;;;12.70;99.90;;;15.34;58.88;98741.41;5061225;27;115101;-76
2022/05/29 08:12:48;;;;;;;4.45;2.30;;;12.70;99.90;;;15.31;59.47;98740.16;5045590;27;129564;-76
2022/05/29 08:15:16;;;;;;;5.18;3.00;;;12.90;99.90;;;15.07;59.45;98738.53;5030270;27;129415;-75
2022/05/29 08:17:46;;;;;;;5.63;3.03;;;12.40;99.90;;;14.71;60.65;98754.19;5041717;27;118430;-82
2022/05/29 08:20:18;;;;;;;4.47;2.67;;;12.00;99.90;;;14.14;61.96;98756.38;5053493;27;116387;-77
2022/05/29 08:22:49;;;;;;;4.10;2.40;;;11.80;99.90;;;14.11;62.86;98754.34;5009672;27;129932;-74
2022/05/29 08:30:53;;;;;;;4.45;2.75;;;12.40;99.90;;;15.55;58.50;98751.94;5040658;27;114795;-77
2022/05/29 08:33:24;;;;;;;4.50;2.60;;;12.60;99.90;;;16.09;57.59;98750.94;5040197;27;130497;-78
2022/05/29 08:35:56;;;;;;;4.72;2.33;;;13.10;99.90;;;16.51;55.99;98758.22;5039540;27;129552;-77
2022/05/29 08:38:27;;;;;;;3.38;2.10;;;13.30;99.90;;;17.13;54.40;98759.06;5042198;27;119986;-74
2022/05/29 08:41:02;;;;;;;3.80;2.58;;;14.00;99.90;;;17.05;52.95;98764.44;5022644;27;115448;-72
2022/05/29 08:43:36;;;;;;;3.47;1.98;;;13.50;99.90;;;16.80;52.45;98772.31;5040207;27;130553;-77
2022/05/29 08:46:10;;;;;;;5.80;1.98;;;13.30;99.90;;;16.82;54.13;98771.94;5052141;27;129889;-74
2022/05/29 08:48:39;;;;;;;3.83;2.03;;;13.60;99.90;;;16.35;55.15;98763.06;5063318;27;119019;-74
2022/05/29 08:51:48;;;;;;;5.90;2.15;;;12.60;99.90;;;16.24;57.46;98764.88;5063043;27;115107;-75
2022/05/29 08:54:28;;;;;;;2.67;1.77;;;13.20;99.90;;;16.18;57.78;98767.91;5039574;27;129616;-75
2022/05/29 08:57:11;;;;;;;3.72;2.30;;;13.40;99.90;;;15.82;57.71;98767.31;5040408;27;129242;-75
2022/05/29 08:59:51;;;;;;;4.30;2.20;;;13.10;99.90;;;15.16;60.48;98762.91;5027423;27;118580;-78
2022/05/29 09:02:36;;;;;;;3.33;2.17;;;12.70;99.90;;;14.57;63.09;98760.88;5043475;27;115505;-79
2022/05/29 09:05:12;;;;;;;4.20;2.27;;;12.20;99.90;;;14.20;65.51;98768.63;5039641;27;129712;-80
2022/05/29 09:07:43;;;;;;;5.97;1.92;;;12.20;1.00;;;14.29;65.76;98771.94;5044332;27;129334;-76
2022/05/29 09:10:20;;;;;;;3.67;2.28;;;12.30;99.90;;;14.63;65.60;98774.28;5059084;27;119061;-77
2022/05/29 09:12:54;;;;;;;4.07;2.38;;;12.60;1.00;;;15.04;63.83;98778.31;5043557;27;114502;-78
2022/05/29 09:15:32;;;;;;;5.18;2.42;;;12.90;99.90;;;15.35;62.57;98784.78;5042356;27;131107;-78
2022/05/29 09:18:11;;;;;;;4.05;2.63;;;13.10;99.90;;;15.28;61.29;98776.44;5041904;27;129019;-76
2022/05/29 09:20:53;;;;;;;4.97;2.50;;;12.30;99.90;;;15.40;62.27;98779.00;5041648;27;118920;-76
2022/05/29 09:23:42;;;;;;;4.80;2.40;;;12.60;99.90;;;15.62;62.55;98787.63;5040517;27;115257;-76
2022/05/29 09:26:19;;;;;;;3.30;2.10;;;13.00;99.90;;;15.85;61.21;98786.88;5040610;27;130188;-78
2022/05/29 09:28:48;;;;;;;4.60;2.40;;;13.30;99.90;;;16.25;60.58;98788.31;5025686;27;128680;-80
2022/05/29 09:31:21;;;;;;;3.47;2.25;;;13.60;99.90;;;17.00;58.49;98788.66;5038024;27;119851;-78
2022/05/29 09:33:50;;;;;;;2.80;1.80;;;14.40;99.90;;;17.53;58.19;98794.00;5038789;27;115461;-78
2022/05/29 09:36:32;;;;;;;4.13;2.15;;;14.40;99.90;;;17.88;55.07;98790.06;5038576;27;129665;-75
2022/05/29 09:39:10;;;;;;;3.97;2.30;;;14.70;99.90;;;17.94;55.19;98794.03;5052109;27;129574;-78
2022/05/29 09:41:45;;;;;;;;;;;14.30;99.90;;;18.17;55.15;98792.25;5060569;27;118885;-80
2022/05/29 09:44:22;;;;;;;2.90;1.98;;;14.80;99.90;;;18.58;53.68;98787.47;5062107;27;115355;-78
2022/05/29 09:46:55;;;;;;;3.42;1.92;;;15.10;99.90;;;18.68;52.42;98795.00;5044764;27;128504;-75
2022/05/29 09:49:45;;;;;;;4.28;2.25;;;14.70;99.90;;;18.65;52.28;98795.78;5045347;27;128942;-75
2022/05/29 09:52:20;;;;;;;3.38;2.28;;;14.70;99.90;;;18.55;51.39;98790.22;5062631;27;117908;-79
2022/05/29 09:54:55;;;;;;;4.73;2.90;;;14.20;99.90;;;17.90;53.39;98795.97;5046083;27;114486;-76
2022/05/29 09:57:31;;;;;;;5.85;3.03;;;13.40;99.90;;;18.09;53.65;98791.41;5058552;27;130098;-73
2022/05/29 10:00:08;;;;;;;4.43;2.15;;;13.90;99.90;;;17.78;52.51;98796.22;5044685;27;129651;-75
2022/05/29 10:02:41;;;;;;;3.17;2.20;;;14.20;99.90;;;17.90;54.63;98806.16;5062325;27;118173;-76
2022/05/29 10:05:23;;;;;;;3.58;2.20;;;14.40;99.90;;;17.80;53.89;98802.09;5064987;27;115117;-75
2022/05/29 10:07:54;;;;;;;3.25;2.00;;;14.80;99.90;;;17.94;52.82;98802.28;5064846;27;129989;-79
2022/05/29 10:10:34;;;;;;;5.00;2.38;;;14.40;99.90;;;17.96;52.80;98794.44;5062280;27;129702;-75
2022/05/29 10:13:06;;;;;;;4.47;2.28;;;14.70;99.90;;;18.16;53.40;98798.94;5065094;27;118802;-76
2022/05/29 10:15:43;;;;;;;6.30;2.38;;;14.90;99.90;;;18.28;53.40;98799.44;5068919;27;114894;-76
2022/05/29 10:18:34;;;;;;;3.80;2.00;;;15.20;99.90;;;18.24;52.46;98798.59;5063867;27;129737;-76
2022/05/29 10:21:19;;;;;;;4.25;2.40;;;14.40;99.90;;;18.24;51.98;98798.59;5062316;27;130942;-76
2022/05/29 10:23:52;;;;;;;5.40;2.15;;;15.00;99.90;;;18.05;52.96;98801.59;5066689;27;119026;-78
2022/05/29 10:26:34;;;;;;;4.00;2.45;;;14.70;99.90;;;18.11;53.03;98800.06;5066978;27;115092;-77
2022/05/29 10:29:17;;;;;;;3.30;1.95;;;14.70;99.90;;;18.21;52.32;98799.34;5068433;27;128736;-77
2022/05/29 10:31:51;;;;;;;4.07;2.00;;;15.10;99.90;;;18.23;53.33;98808.03;5067135;27;128684;-75
2022/05/29 10:34:27;;;;;;;4.22;2.20;;;15.20;99.90;;;17.60;52.55;98802.28;5066024;27;118925;-74
2022/05/29 10:36:56;;;;;;;3.10;1.77;;;13.90;99.90;;;17.49;53.67;98798.66;5050861;27;115482;-77
2022/05/29 10:39:31;;;;;;;2.90;2.00;;;14.30;99.90;;;16.97;54.87;98801.16;5065310;27;129716;-75
2022/05/29 10:42:00;;;;;;;4.43;2.35;;;13.70;99.90;;;16.81;56.11;98809.53;5062032;27;129841;-76
2022/05/29 10:44:51;;;;;;;3.88;2.30;;;13.90;99.90;;;17.31;54.95;98808.63;5065616;27;119678;-76
2022/05/29 10:47:33;;;;;;;3.63;2.20;;;14.50;99.90;;;17.45;52.92;98818.97;5065459;27;116443;-74
2022/05/29 10:50:12;;;;;;;6.53;3.67;;;14.50;99.90;;;17.67;52.63;98820.00;5065659;27;130130;-73
2022/05/29 10:52:58;;;;;;;4.35;2.10;;;14.40;99.90;;;17.72;52.36;98805.97;5049141;27;128427;-75
2022/05/29 10:55:49;;;;;;;2.92;1.70;;;14.70;99.90;;;17.71;52.22;98813.38;5064757;27;118688;-76
2022/05/29 10:59:06;;;;;;;4.15;2.10;;;14.90;99.90;;;17.74;53.40;98809.09;5065019;27;115198;-74
2022/05/29 11:05:36;;;;;;;2.65;1.60;;;15.00;99.90;;;18.26;50.10;98818.25;5064345;27;128980;-77
2022/05/29 11:08:37;;;;;;;2.78;1.73;;;15.40;99.90;;;18.50;50.52;98810.59;5063451;27;119904;-77
2022/05/29 11:11:25;;;;;;;4.05;1.90;;;15.40;99.90;;;18.11;52.78;98819.28;5064952;27;114739;-73
2022/05/29 11:14:30;;;;;;;4.15;2.28;;;15.40;99.90;;;17.92;52.78;98820.28;5047703;27;130269;-76
2022/05/29 11:17:13;;;;;;;5.95;2.13;;;14.80;99.90;;;17.45;53.58;98825.22;5045123;27;129273;-71
2022/05/29 11:20:22;;;;;;;3.70;2.10;;;14.10;99.90;;;17.30;54.78;98823.50;5064635;27;118596;-77